sensor_id;sensor_type;location;lat;lon;timestamp;P1;durP1;ratioP1;P2;durP2;ratioP2
2039;SDS011;1025;42.686;23.350;2022-11-24T00:00:49;2.23;;;2.13;;
2039;SDS011;1025;42.686;23.350;2022-11-24T00:03:16;2.27;;;2.07;;
2039;SDS011;1025;42.686;23.350;2022-11-24T00:05:44;2.57;;;2.37;;
2039;SDS011;1025;42.686;23.350;2022-11-24T00:08:11;2.70;;;2.23;;
2039;SDS011;1025;42.686;23.350;2022-11-24T00:10:37;1.70;;;1.60;;
2039;SDS011;1025;42.686;23.350;2022-11-24T00:13:04;2.00;;;1.90;;
2039;SDS011;1025;42.686;23.350;2022-11-24T00:15:30;2.80;;;2.00;;
2039;SDS011;1025;42.686;23.350;2022-11-24T00:17:57;2.30;;;2.20;;
2039;SDS011;1025;42.686;23.350;2022-11-24T00:20:23;2.80;;;2.00;;
2039;SDS011;1025;42.686;23.350;2022-11-24T00:22:51;2.33;;;2.23;;
2039;SDS011;1025;42.686;23.350;2022-11-24T00:25:18;2.33;;;2.23;;
2039;SDS011;1025;42.686;23.350;2022-11-24T00:27:44;1.93;;;1.83;;
2039;SDS011;1025;42.686;23.350;2022-11-24T00:30:11;2.10;;;2.00;;
2039;SDS011;1025;42.686;23.350;2022-11-24T00:32:37;2.30;;;2.10;;
2039;SDS011;1025;42.686;23.350;2022-11-24T00:35:04;1.77;;;1.77;;
2039;SDS011;1025;42.686;23.350;2022-11-24T00:37:31;2.40;;;2.03;;
2039;SDS011;1025;42.686;23.350;2022-11-24T00:39:59;2.00;;;1.90;;
2039;SDS011;1025;42.686;23.350;2022-11-24T00:42:26;2.10;;;2.00;;
2039;SDS011;1025;42.686;23.350;2022-11-24T00:44:52;2.83;;;2.60;;
2039;SDS011;1025;42.686;23.350;2022-11-24T00:47:19;2.63;;;2.30;;
2039;SDS011;1025;42.686;23.350;2022-11-24T00:49:45;2.90;;;2.40;;
2039;SDS011;1025;42.686;23.350;2022-11-24T00:52:12;3.23;;;2.33;;
2039;SDS011;1025;42.686;23.350;2022-11-24T00:54:38;2.23;;;2.13;;
2039;SDS011;1025;42.686;23.350;2022-11-24T00:57:06;2.60;;;2.40;;
2039;SDS011;1025;42.686;23.350;2022-11-24T00:59:33;2.80;;;2.53;;
2039;SDS011;1025;42.686;23.350;2022-11-24T01:01:59;1.97;;;1.87;;
2039;SDS011;1025;42.686;23.350;2022-11-24T01:04:26;2.10;;;2.00;;
2039;SDS011;1025;42.686;23.350;2022-11-24T01:06:53;2.57;;;2.47;;
2039;SDS011;1025;42.686;23.350;2022-11-24T01:09:19;2.70;;;2.60;;
2039;SDS011;1025;42.686;23.350;2022-11-24T01:11:46;3.13;;;2.87;;
2039;SDS011;1025;42.686;23.350;2022-11-24T01:14:30;4.53;;;2.07;;
2039;SDS011;1025;42.686;23.350;2022-11-24T01:16:56;1.73;;;1.67;;
2039;SDS011;1025;42.686;23.350;2022-11-24T01:19:23;2.60;;;2.50;;
2039;SDS011;1025;42.686;23.350;2022-11-24T01:21:50;1.97;;;1.87;;
2039;SDS011;1025;42.686;23.350;2022-11-24T01:24:16;2.30;;;2.13;;
2039;SDS011;1025;42.686;23.350;2022-11-24T01:26:43;9.80;;;3.00;;
2039;SDS011;1025;42.686;23.350;2022-11-24T01:29:09;2.90;;;2.57;;
2039;SDS011;1025;42.686;23.350;2022-11-24T01:31:38;2.30;;;2.20;;
2039;SDS011;1025;42.686;23.350;2022-11-24T01:34:05;3.20;;;2.87;;
2039;SDS011;1025;42.686;23.350;2022-11-24T01:36:31;2.17;;;2.07;;
2039;SDS011;1025;42.686;23.350;2022-11-24T01:38:58;1.70;;;1.63;;
2039;SDS011;1025;42.686;23.350;2022-11-24T01:41:24;2.00;;;1.90;;
2039;SDS011;1025;42.686;23.350;2022-11-24T01:43:51;1.97;;;1.87;;
2039;SDS011;1025;42.686;23.350;2022-11-24T01:46:19;2.57;;;2.47;;
2039;SDS011;1025;42.686;23.350;2022-11-24T01:48:50;2.17;;;2.07;;
2039;SDS011;1025;42.686;23.350;2022-11-24T01:51:18;7.93;;;1.93;;
2039;SDS011;1025;42.686;23.350;2022-11-24T01:53:47;3.07;;;2.77;;
2039;SDS011;1025;42.686;23.350;2022-11-24T01:56:14;3.00;;;2.57;;
2039;SDS011;1025;42.686;23.350;2022-11-24T01:58:41;1.97;;;1.87;;
2039;SDS011;1025;42.686;23.350;2022-11-24T02:01:09;2.33;;;2.20;;
2039;SDS011;1025;42.686;23.350;2022-11-24T02:03:37;2.00;;;1.90;;
2039;SDS011;1025;42.686;23.350;2022-11-24T02:06:07;3.60;;;3.40;;
2039;SDS011;1025;42.686;23.350;2022-11-24T02:08:36;2.23;;;2.03;;
2039;SDS011;1025;42.686;23.350;2022-11-24T02:11:05;4.03;;;2.80;;
2039;SDS011;1025;42.686;23.350;2022-11-24T02:13:32;3.13;;;2.73;;
2039;SDS011;1025;42.686;23.350;2022-11-24T02:15:59;3.20;;;2.97;;
2039;SDS011;1025;42.686;23.350;2022-11-24T02:18:26;3.03;;;2.87;;
2039;SDS011;1025;42.686;23.350;2022-11-24T02:20:53;2.23;;;2.13;;
2039;SDS011;1025;42.686;23.350;2022-11-24T02:23:22;1.77;;;1.67;;
2039;SDS011;1025;42.686;23.350;2022-11-24T02:25:51;3.47;;;3.27;;
2039;SDS011;1025;42.686;23.350;2022-11-24T02:28:21;4.07;;;3.73;;
2039;SDS011;1025;42.686;23.350;2022-11-24T02:30:48;4.07;;;2.90;;
2039;SDS011;1025;42.686;23.350;2022-11-24T02:33:15;2.70;;;2.50;;
2039;SDS011;1025;42.686;23.350;2022-11-24T02:35:42;4.17;;;3.67;;
2039;SDS011;1025;42.686;23.350;2022-11-24T02:38:10;4.63;;;4.33;;
2039;SDS011;1025;42.686;23.350;2022-11-24T02:40:36;5.80;;;4.50;;
2039;SDS011;1025;42.686;23.350;2022-11-24T02:43:03;6.20;;;5.70;;
2039;SDS011;1025;42.686;23.350;2022-11-24T02:45:32;4.70;;;4.30;;
2039;SDS011;1025;42.686;23.350;2022-11-24T02:47:58;6.80;;;5.53;;
2039;SDS011;1025;42.686;23.350;2022-11-24T02:50:25;4.93;;;4.63;;
2039;SDS011;1025;42.686;23.350;2022-11-24T02:52:51;4.37;;;4.17;;
2039;SDS011;1025;42.686;23.350;2022-11-24T02:55:18;5.97;;;4.80;;
2039;SDS011;1025;42.686;23.350;2022-11-24T02:57:45;4.43;;;4.23;;
2039;SDS011;1025;42.686;23.350;2022-11-24T03:00:12;4.80;;;4.50;;
2039;SDS011;1025;42.686;23.350;2022-11-24T03:02:40;4.27;;;4.07;;
2039;SDS011;1025;42.686;23.350;2022-11-24T03:05:07;5.30;;;4.90;;
2039;SDS011;1025;42.686;23.350;2022-11-24T03:07:34;7.33;;;5.10;;
2039;SDS011;1025;42.686;23.350;2022-11-24T03:10:00;5.23;;;4.83;;
2039;SDS011;1025;42.686;23.350;2022-11-24T03:12:27;4.90;;;4.60;;
2039;SDS011;1025;42.686;23.350;2022-11-24T03:14:53;4.40;;;4.03;;
2039;SDS011;1025;42.686;23.350;2022-11-24T03:17:20;11.23;;;4.50;;
2039;SDS011;1025;42.686;23.350;2022-11-24T03:19:48;11.10;;;5.50;;
2039;SDS011;1025;42.686;23.350;2022-11-24T03:22:14;5.20;;;4.37;;
2039;SDS011;1025;42.686;23.350;2022-11-24T03:24:41;4.27;;;3.97;;
2039;SDS011;1025;42.686;23.350;2022-11-24T03:27:07;4.77;;;4.37;;
2039;SDS011;1025;42.686;23.350;2022-11-24T03:29:34;5.67;;;5.20;;
2039;SDS011;1025;42.686;23.350;2022-11-24T03:32:00;8.67;;;5.10;;
2039;SDS011;1025;42.686;23.350;2022-11-24T03:34:27;5.20;;;4.90;;
2039;SDS011;1025;42.686;23.350;2022-11-24T03:36:55;6.40;;;5.90;;
2039;SDS011;1025;42.686;23.350;2022-11-24T03:39:22;6.60;;;6.10;;
2039;SDS011;1025;42.686;23.350;2022-11-24T03:41:49;5.67;;;5.20;;
2039;SDS011;1025;42.686;23.350;2022-11-24T03:44:16;6.10;;;5.50;;
2039;SDS011;1025;42.686;23.350;2022-11-24T03:46:43;5.37;;;4.97;;
2039;SDS011;1025;42.686;23.350;2022-11-24T03:49:09;5.47;;;5.07;;
2039;SDS011;1025;42.686;23.350;2022-11-24T03:51:36;7.40;;;6.83;;
2039;SDS011;1025;42.686;23.350;2022-11-24T03:54:04;6.23;;;5.70;;
2039;SDS011;1025;42.686;23.350;2022-11-24T03:56:30;6.57;;;6.10;;
2039;SDS011;1025;42.686;23.350;2022-11-24T03:58:57;6.57;;;6.27;;
2039;SDS011;1025;42.686;23.350;2022-11-24T04:01:23;10.27;;;7.20;;
2039;SDS011;1025;42.686;23.350;2022-11-24T04:03:50;7.80;;;6.63;;
2039;SDS011;1025;42.686;23.350;2022-11-24T04:06:16;7.37;;;5.90;;
2039;SDS011;1025;42.686;23.350;2022-11-24T04:08:43;5.50;;;5.10;;
2039;SDS011;1025;42.686;23.350;2022-11-24T04:11:11;7.23;;;6.70;;
2039;SDS011;1025;42.686;23.350;2022-11-24T04:13:57;10.20;;;6.23;;
2039;SDS011;1025;42.686;23.350;2022-11-24T04:16:23;5.90;;;5.50;;
2039;SDS011;1025;42.686;23.350;2022-11-24T04:18:50;7.07;;;6.33;;
2039;SDS011;1025;42.686;23.350;2022-11-24T04:21:17;8.50;;;6.80;;
2039;SDS011;1025;42.686;23.350;2022-11-24T04:23:43;6.67;;;6.20;;
2039;SDS011;1025;42.686;23.350;2022-11-24T04:26:11;7.30;;;6.63;;
2039;SDS011;1025;42.686;23.350;2022-11-24T04:28:38;6.00;;;5.60;;
2039;SDS011;1025;42.686;23.350;2022-11-24T04:31:05;7.07;;;6.47;;
2039;SDS011;1025;42.686;23.350;2022-11-24T04:33:31;7.17;;;6.40;;
2039;SDS011;1025;42.686;23.350;2022-11-24T04:35:58;6.40;;;5.63;;
2039;SDS011;1025;42.686;23.350;2022-11-24T04:38:24;6.90;;;6.50;;
2039;SDS011;1025;42.686;23.350;2022-11-24T04:40:51;6.30;;;5.87;;
2039;SDS011;1025;42.686;23.350;2022-11-24T04:43:19;6.30;;;5.80;;
2039;SDS011;1025;42.686;23.350;2022-11-24T04:45:46;6.00;;;5.50;;
2039;SDS011;1025;42.686;23.350;2022-11-24T04:48:12;7.43;;;6.77;;
2039;SDS011;1025;42.686;23.350;2022-11-24T04:50:39;7.07;;;6.57;;
2039;SDS011;1025;42.686;23.350;2022-11-24T04:53:06;6.17;;;5.77;;
2039;SDS011;1025;42.686;23.350;2022-11-24T04:55:32;14.00;;;6.30;;
2039;SDS011;1025;42.686;23.350;2022-11-24T04:57:59;6.93;;;6.00;;
2039;SDS011;1025;42.686;23.350;2022-11-24T05:00:30;5.30;;;4.93;;
2039;SDS011;1025;42.686;23.350;2022-11-24T05:02:56;5.63;;;5.17;;
2039;SDS011;1025;42.686;23.350;2022-11-24T05:05:23;12.07;;;5.57;;
2039;SDS011;1025;42.686;23.350;2022-11-24T05:07:49;5.47;;;4.60;;
2039;SDS011;1025;42.686;23.350;2022-11-24T05:10:16;5.57;;;5.07;;
2039;SDS011;1025;42.686;23.350;2022-11-24T05:13:02;8.43;;;7.80;;
2039;SDS011;1025;42.686;23.350;2022-11-24T05:15:31;7.10;;;6.70;;
2039;SDS011;1025;42.686;23.350;2022-11-24T05:17:57;5.90;;;5.40;;
2039;SDS011;1025;42.686;23.350;2022-11-24T05:20:24;5.97;;;5.40;;
2039;SDS011;1025;42.686;23.350;2022-11-24T05:22:51;5.00;;;4.80;;
2039;SDS011;1025;42.686;23.350;2022-11-24T05:25:17;5.40;;;4.90;;
2039;SDS011;1025;42.686;23.350;2022-11-24T05:27:45;7.67;;;5.37;;
2039;SDS011;1025;42.686;23.350;2022-11-24T05:32:48;6.07;;;4.90;;
2039;SDS011;1025;42.686;23.350;2022-11-24T05:35:14;7.27;;;6.63;;
2039;SDS011;1025;42.686;23.350;2022-11-24T05:37:42;6.37;;;5.97;;
2039;SDS011;1025;42.686;23.350;2022-11-24T05:40:09;9.87;;;9.07;;
2039;SDS011;1025;42.686;23.350;2022-11-24T05:42:36;7.10;;;6.40;;
2039;SDS011;1025;42.686;23.350;2022-11-24T05:45:06;5.37;;;5.00;;
2039;SDS011;1025;42.686;23.350;2022-11-24T05:47:33;6.33;;;5.90;;
2039;SDS011;1025;42.686;23.350;2022-11-24T05:50:01;5.93;;;5.30;;
2039;SDS011;1025;42.686;23.350;2022-11-24T05:52:27;7.80;;;7.20;;
2039;SDS011;1025;42.686;23.350;2022-11-24T05:54:54;10.93;;;6.83;;
2039;SDS011;1025;42.686;23.350;2022-11-24T05:57:20;6.37;;;5.77;;
2039;SDS011;1025;42.686;23.350;2022-11-24T05:59:47;6.80;;;6.20;;
2039;SDS011;1025;42.686;23.350;2022-11-24T06:02:14;6.70;;;6.10;;
2039;SDS011;1025;42.686;23.350;2022-11-24T06:04:40;7.87;;;6.80;;
2039;SDS011;1025;42.686;23.350;2022-11-24T06:07:09;9.00;;;8.20;;
2039;SDS011;1025;42.686;23.350;2022-11-24T06:09:36;8.70;;;7.97;;
2039;SDS011;1025;42.686;23.350;2022-11-24T06:12:03;10.13;;;9.27;;
2039;SDS011;1025;42.686;23.350;2022-11-24T06:14:30;22.10;;;10.50;;
2039;SDS011;1025;42.686;23.350;2022-11-24T06:16:56;8.37;;;7.57;;
2039;SDS011;1025;42.686;23.350;2022-11-24T06:19:23;9.53;;;8.13;;
2039;SDS011;1025;42.686;23.350;2022-11-24T06:21:49;9.70;;;8.90;;
2039;SDS011;1025;42.686;23.350;2022-11-24T06:24:17;12.87;;;10.93;;
2039;SDS011;1025;42.686;23.350;2022-11-24T06:26:44;10.57;;;9.57;;
2039;SDS011;1025;42.686;23.350;2022-11-24T06:29:10;16.30;;;10.47;;
2039;SDS011;1025;42.686;23.350;2022-11-24T06:31:37;10.33;;;9.60;;
2039;SDS011;1025;42.686;23.350;2022-11-24T06:34:04;10.37;;;9.30;;
2039;SDS011;1025;42.686;23.350;2022-11-24T06:36:31;10.60;;;9.80;;
2039;SDS011;1025;42.686;23.350;2022-11-24T06:38:59;12.23;;;11.13;;
2039;SDS011;1025;42.686;23.350;2022-11-24T06:41:27;15.63;;;10.70;;
2039;SDS011;1025;42.686;23.350;2022-11-24T06:43:54;12.60;;;11.40;;
2039;SDS011;1025;42.686;23.350;2022-11-24T06:46:20;13.37;;;12.17;;
2039;SDS011;1025;42.686;23.350;2022-11-24T06:48:49;11.50;;;10.57;;
2039;SDS011;1025;42.686;23.350;2022-11-24T06:51:16;11.40;;;10.23;;
2039;SDS011;1025;42.686;23.350;2022-11-24T06:53:43;14.97;;;10.67;;
2039;SDS011;1025;42.686;23.350;2022-11-24T06:56:10;11.93;;;10.83;;
2039;SDS011;1025;42.686;23.350;2022-11-24T06:58:40;23.83;;;12.67;;
2039;SDS011;1025;42.686;23.350;2022-11-24T07:01:07;14.47;;;13.17;;
2039;SDS011;1025;42.686;23.350;2022-11-24T07:03:33;13.60;;;10.57;;
2039;SDS011;1025;42.686;23.350;2022-11-24T07:06:00;13.07;;;11.73;;
2039;SDS011;1025;42.686;23.350;2022-11-24T07:08:33;16.56;;;8.58;;
2039;SDS011;1025;42.686;23.350;2022-11-24T07:11:02;10.50;;;9.50;;
2039;SDS011;1025;42.686;23.350;2022-11-24T07:13:29;10.20;;;9.40;;
2039;SDS011;1025;42.686;23.350;2022-11-24T07:15:57;13.10;;;8.80;;
2039;SDS011;1025;42.686;23.350;2022-11-24T07:18:23;9.37;;;8.53;;
2039;SDS011;1025;42.686;23.350;2022-11-24T07:20:50;8.93;;;8.23;;
2039;SDS011;1025;42.686;23.350;2022-11-24T07:23:16;8.23;;;5.57;;
2039;SDS011;1025;42.686;23.350;2022-11-24T07:25:43;5.70;;;5.40;;
2039;SDS011;1025;42.686;23.350;2022-11-24T07:28:09;5.20;;;4.80;;
2039;SDS011;1025;42.686;23.350;2022-11-24T07:30:36;4.40;;;4.17;;
2039;SDS011;1025;42.686;23.350;2022-11-24T07:33:04;5.10;;;4.63;;
2039;SDS011;1025;42.686;23.350;2022-11-24T07:35:30;6.23;;;5.60;;
2039;SDS011;1025;42.686;23.350;2022-11-24T07:37:57;6.17;;;5.70;;
2039;SDS011;1025;42.686;23.350;2022-11-24T07:40:24;11.40;;;6.97;;
2039;SDS011;1025;42.686;23.350;2022-11-24T07:42:50;6.17;;;5.60;;
2039;SDS011;1025;42.686;23.350;2022-11-24T07:45:17;6.20;;;5.80;;
2039;SDS011;1025;42.686;23.350;2022-11-24T07:47:43;11.33;;;7.03;;
2039;SDS011;1025;42.686;23.350;2022-11-24T07:50:11;7.23;;;6.63;;
2039;SDS011;1025;42.686;23.350;2022-11-24T07:52:38;6.27;;;5.83;;
2039;SDS011;1025;42.686;23.350;2022-11-24T07:55:05;7.37;;;6.77;;
2039;SDS011;1025;42.686;23.350;2022-11-24T07:57:32;7.40;;;6.73;;
2039;SDS011;1025;42.686;23.350;2022-11-24T07:59:59;6.60;;;6.00;;
2039;SDS011;1025;42.686;23.350;2022-11-24T08:02:26;9.50;;;7.33;;
2039;SDS011;1025;42.686;23.350;2022-11-24T08:04:52;5.67;;;5.37;;
2039;SDS011;1025;42.686;23.350;2022-11-24T08:07:20;6.80;;;6.20;;
2039;SDS011;1025;42.686;23.350;2022-11-24T08:09:47;5.87;;;5.50;;
2039;SDS011;1025;42.686;23.350;2022-11-24T08:12:14;7.07;;;6.47;;
2039;SDS011;1025;42.686;23.350;2022-11-24T08:14:41;5.37;;;4.87;;
2039;SDS011;1025;42.686;23.350;2022-11-24T08:17:08;5.33;;;4.93;;
2039;SDS011;1025;42.686;23.350;2022-11-24T08:19:34;6.10;;;5.40;;
2039;SDS011;1025;42.686;23.350;2022-11-24T08:22:01;6.27;;;5.60;;
2039;SDS011;1025;42.686;23.350;2022-11-24T08:24:29;6.00;;;5.50;;
2039;SDS011;1025;42.686;23.350;2022-11-24T08:26:56;4.80;;;4.40;;
2039;SDS011;1025;42.686;23.350;2022-11-24T08:29:26;6.10;;;4.57;;
2039;SDS011;1025;42.686;23.350;2022-11-24T08:31:52;5.67;;;5.17;;
2039;SDS011;1025;42.686;23.350;2022-11-24T08:34:21;5.57;;;5.10;;
2039;SDS011;1025;42.686;23.350;2022-11-24T08:36:48;5.23;;;4.90;;
2039;SDS011;1025;42.686;23.350;2022-11-24T08:39:14;4.90;;;4.60;;
2039;SDS011;1025;42.686;23.350;2022-11-24T08:41:42;3.50;;;3.27;;
2039;SDS011;1025;42.686;23.350;2022-11-24T08:44:09;4.83;;;4.53;;
2039;SDS011;1025;42.686;23.350;2022-11-24T08:46:39;4.43;;;3.90;;
2039;SDS011;1025;42.686;23.350;2022-11-24T08:49:06;5.13;;;4.83;;
2039;SDS011;1025;42.686;23.350;2022-11-24T08:51:32;4.70;;;4.40;;
2039;SDS011;1025;42.686;23.350;2022-11-24T08:54:05;4.87;;;4.50;;
2039;SDS011;1025;42.686;23.350;2022-11-24T08:56:32;3.13;;;3.03;;
2039;SDS011;1025;42.686;23.350;2022-11-24T08:59:00;5.50;;;5.10;;
2039;SDS011;1025;42.686;23.350;2022-11-24T09:01:27;6.80;;;3.40;;
2039;SDS011;1025;42.686;23.350;2022-11-24T09:03:54;5.83;;;2.50;;
2039;SDS011;1025;42.686;23.350;2022-11-24T09:06:21;3.30;;;3.10;;
2039;SDS011;1025;42.686;23.350;2022-11-24T09:08:49;3.40;;;2.33;;
2039;SDS011;1025;42.686;23.350;2022-11-24T09:11:15;8.07;;;7.23;;
2039;SDS011;1025;42.686;23.350;2022-11-24T09:13:42;8.00;;;3.13;;
2039;SDS011;1025;42.686;23.350;2022-11-24T09:16:11;2.47;;;2.37;;
2039;SDS011;1025;42.686;23.350;2022-11-24T09:18:38;3.03;;;2.93;;
2039;SDS011;1025;42.686;23.350;2022-11-24T09:21:05;2.43;;;2.33;;
2039;SDS011;1025;42.686;23.350;2022-11-24T09:23:32;2.47;;;2.37;;
2039;SDS011;1025;42.686;23.350;2022-11-24T09:26:01;4.03;;;3.60;;
2039;SDS011;1025;42.686;23.350;2022-11-24T09:28:28;4.40;;;4.00;;
2039;SDS011;1025;42.686;23.350;2022-11-24T09:30:54;3.97;;;1.83;;
2039;SDS011;1025;42.686;23.350;2022-11-24T09:33:26;1.30;;;1.30;;
2039;SDS011;1025;42.686;23.350;2022-11-24T09:35:52;3.03;;;2.47;;
2039;SDS011;1025;42.686;23.350;2022-11-24T09:38:19;2.43;;;2.27;;
2039;SDS011;1025;42.686;23.350;2022-11-24T09:40:46;3.17;;;3.07;;
2039;SDS011;1025;42.686;23.350;2022-11-24T09:43:15;2.80;;;2.60;;
2039;SDS011;1025;42.686;23.350;2022-11-24T09:45:44;2.10;;;1.90;;
2039;SDS011;1025;42.686;23.350;2022-11-24T09:48:14;2.10;;;1.80;;
2039;SDS011;1025;42.686;23.350;2022-11-24T09:50:47;3.90;;;2.20;;
2039;SDS011;1025;42.686;23.350;2022-11-24T09:53:14;1.63;;;1.53;;
2039;SDS011;1025;42.686;23.350;2022-11-24T09:55:43;1.70;;;1.60;;
2039;SDS011;1025;42.686;23.350;2022-11-24T09:58:11;1.80;;;1.70;;
2039;SDS011;1025;42.686;23.350;2022-11-24T10:00:38;1.83;;;1.73;;
2039;SDS011;1025;42.686;23.350;2022-11-24T10:03:05;1.80;;;1.70;;
2039;SDS011;1025;42.686;23.350;2022-11-24T10:05:32;1.63;;;1.53;;
2039;SDS011;1025;42.686;23.350;2022-11-24T10:08:05;5.00;;;2.33;;
2039;SDS011;1025;42.686;23.350;2022-11-24T10:10:35;1.50;;;1.40;;
2039;SDS011;1025;42.686;23.350;2022-11-24T10:13:06;1.67;;;1.57;;
2039;SDS011;1025;42.686;23.350;2022-11-24T10:15:40;2.13;;;2.03;;
2039;SDS011;1025;42.686;23.350;2022-11-24T10:18:17;3.57;;;3.37;;
2039;SDS011;1025;42.686;23.350;2022-11-24T10:20:51;1.50;;;1.50;;
2039;SDS011;1025;42.686;23.350;2022-11-24T10:23:25;2.10;;;1.43;;
2039;SDS011;1025;42.686;23.350;2022-11-24T10:25:55;2.40;;;1.33;;
2039;SDS011;1025;42.686;23.350;2022-11-24T10:28:22;1.63;;;1.53;;
2039;SDS011;1025;42.686;23.350;2022-11-24T10:30:51;7.63;;;2.33;;
2039;SDS011;1025;42.686;23.350;2022-11-24T10:33:23;2.07;;;1.97;;
2039;SDS011;1025;42.686;23.350;2022-11-24T10:35:52;1.60;;;1.50;;
2039;SDS011;1025;42.686;23.350;2022-11-24T10:38:25;2.40;;;2.20;;
2039;SDS011;1025;42.686;23.350;2022-11-24T10:40:56;1.43;;;1.43;;
2039;SDS011;1025;42.686;23.350;2022-11-24T10:43:25;2.87;;;2.67;;
2039;SDS011;1025;42.686;23.350;2022-11-24T10:45:52;3.47;;;3.17;;
2039;SDS011;1025;42.686;23.350;2022-11-24T10:48:19;1.90;;;1.80;;
2039;SDS011;1025;42.686;23.350;2022-11-24T10:50:47;2.20;;;2.10;;
2039;SDS011;1025;42.686;23.350;2022-11-24T10:53:15;2.50;;;2.40;;
2039;SDS011;1025;42.686;23.350;2022-11-24T10:55:58;3.03;;;2.90;;
2039;SDS011;1025;42.686;23.350;2022-11-24T10:58:25;2.03;;;1.93;;
2039;SDS011;1025;42.686;23.350;2022-11-24T11:00:52;2.00;;;1.90;;
2039;SDS011;1025;42.686;23.350;2022-11-24T11:03:19;3.70;;;2.57;;
2039;SDS011;1025;42.686;23.350;2022-11-24T11:05:50;3.40;;;3.00;;
2039;SDS011;1025;42.686;23.350;2022-11-24T11:08:18;3.10;;;2.90;;
2039;SDS011;1025;42.686;23.350;2022-11-24T11:10:45;3.83;;;2.67;;
2039;SDS011;1025;42.686;23.350;2022-11-24T11:13:20;2.60;;;2.33;;
2039;SDS011;1025;42.686;23.350;2022-11-24T11:15:47;3.57;;;3.40;;
2039;SDS011;1025;42.686;23.350;2022-11-24T11:18:14;9.83;;;7.53;;
2039;SDS011;1025;42.686;23.350;2022-11-24T11:20:43;4.80;;;4.40;;
2039;SDS011;1025;42.686;23.350;2022-11-24T11:23:18;3.30;;;3.10;;
2039;SDS011;1025;42.686;23.350;2022-11-24T11:25:46;3.80;;;3.60;;
2039;SDS011;1025;42.686;23.350;2022-11-24T11:28:25;2.23;;;2.13;;
2039;SDS011;1025;42.686;23.350;2022-11-24T11:30:56;2.40;;;2.30;;
2039;SDS011;1025;42.686;23.350;2022-11-24T11:33:24;2.57;;;2.43;;
2039;SDS011;1025;42.686;23.350;2022-11-24T11:35:52;3.37;;;3.00;;
2039;SDS011;1025;42.686;23.350;2022-11-24T11:38:19;5.83;;;5.40;;
2039;SDS011;1025;42.686;23.350;2022-11-24T11:40:46;2.43;;;2.33;;
2039;SDS011;1025;42.686;23.350;2022-11-24T11:43:15;3.77;;;3.50;;
2039;SDS011;1025;42.686;23.350;2022-11-24T11:45:45;3.63;;;3.13;;
2039;SDS011;1025;42.686;23.350;2022-11-24T11:48:19;3.20;;;3.00;;
2039;SDS011;1025;42.686;23.350;2022-11-24T11:50:48;2.60;;;2.50;;
2039;SDS011;1025;42.686;23.350;2022-11-24T11:53:17;2.47;;;2.37;;
2039;SDS011;1025;42.686;23.350;2022-11-24T11:55:49;3.40;;;3.10;;
2039;SDS011;1025;42.686;23.350;2022-11-24T12:01:08;2.60;;;2.50;;
2039;SDS011;1025;42.686;23.350;2022-11-24T12:03:40;3.63;;;3.43;;
2039;SDS011;1025;42.686;23.350;2022-11-24T12:06:12;3.80;;;3.60;;
2039;SDS011;1025;42.686;23.350;2022-11-24T12:08:45;3.17;;;2.87;;
2039;SDS011;1025;42.686;23.350;2022-11-24T12:11:15;5.50;;;3.60;;
2039;SDS011;1025;42.686;23.350;2022-11-24T12:13:46;2.90;;;2.80;;
2039;SDS011;1025;42.686;23.350;2022-11-24T12:16:22;2.17;;;2.07;;
2039;SDS011;1025;42.686;23.350;2022-11-24T12:18:53;4.60;;;3.87;;
2039;SDS011;1025;42.686;23.350;2022-11-24T12:21:24;2.90;;;2.70;;
2039;SDS011;1025;42.686;23.350;2022-11-24T12:23:56;3.40;;;3.20;;
2039;SDS011;1025;42.686;23.350;2022-11-24T12:26:28;2.93;;;2.73;;
2039;SDS011;1025;42.686;23.350;2022-11-24T12:28:59;2.10;;;2.00;;
2039;SDS011;1025;42.686;23.350;2022-11-24T12:31:29;2.90;;;2.70;;
2039;SDS011;1025;42.686;23.350;2022-11-24T12:34:02;4.00;;;3.23;;
2039;SDS011;1025;42.686;23.350;2022-11-24T12:36:40;2.77;;;2.57;;
2039;SDS011;1025;42.686;23.350;2022-11-24T12:39:14;3.20;;;3.00;;
2039;SDS011;1025;42.686;23.350;2022-11-24T12:41:47;3.37;;;2.90;;
2039;SDS011;1025;42.686;23.350;2022-11-24T12:44:24;2.37;;;2.20;;
2039;SDS011;1025;42.686;23.350;2022-11-24T12:46:55;2.63;;;2.53;;
2039;SDS011;1025;42.686;23.350;2022-11-24T12:49:26;3.57;;;3.27;;
2039;SDS011;1025;42.686;23.350;2022-11-24T12:51:58;2.33;;;2.23;;
2039;SDS011;1025;42.686;23.350;2022-11-24T12:54:36;2.60;;;2.40;;
2039;SDS011;1025;42.686;23.350;2022-11-24T12:57:05;5.83;;;3.00;;
2039;SDS011;1025;42.686;23.350;2022-11-24T12:59:33;2.73;;;2.63;;
2039;SDS011;1025;42.686;23.350;2022-11-24T13:02:08;3.20;;;3.00;;
2039;SDS011;1025;42.686;23.350;2022-11-24T13:04:40;3.57;;;3.37;;
2039;SDS011;1025;42.686;23.350;2022-11-24T13:07:09;3.33;;;3.13;;
2039;SDS011;1025;42.686;23.350;2022-11-24T13:09:36;2.67;;;2.47;;
2039;SDS011;1025;42.686;23.350;2022-11-24T13:12:07;3.40;;;3.13;;
2039;SDS011;1025;42.686;23.350;2022-11-24T13:14:36;2.40;;;2.20;;
2039;SDS011;1025;42.686;23.350;2022-11-24T13:17:21;3.73;;;3.43;;
2039;SDS011;1025;42.686;23.350;2022-11-24T13:19:48;3.07;;;2.87;;
2039;SDS011;1025;42.686;23.350;2022-11-24T13:22:16;2.60;;;2.50;;
2039;SDS011;1025;42.686;23.350;2022-11-24T13:24:43;3.03;;;2.87;;
2039;SDS011;1025;42.686;23.350;2022-11-24T13:27:26;4.40;;;3.10;;
2039;SDS011;1025;42.686;23.350;2022-11-24T13:29:53;3.03;;;2.83;;
2039;SDS011;1025;42.686;23.350;2022-11-24T13:35:18;3.23;;;3.00;;
2039;SDS011;1025;42.686;23.350;2022-11-24T13:37:45;2.60;;;2.50;;
2039;SDS011;1025;42.686;23.350;2022-11-24T13:43:19;3.07;;;2.97;;
2039;SDS011;1025;42.686;23.350;2022-11-24T13:45:46;1.97;;;1.87;;
2039;SDS011;1025;42.686;23.350;2022-11-24T13:51:21;5.93;;;5.33;;
2039;SDS011;1025;42.686;23.350;2022-11-24T13:53:48;7.97;;;7.23;;
2039;SDS011;1025;42.686;23.350;2022-11-24T13:56:22;4.33;;;4.03;;
2039;SDS011;1025;42.686;23.350;2022-11-24T13:58:50;3.00;;;2.80;;
2039;SDS011;1025;42.686;23.350;2022-11-24T14:01:18;2.10;;;2.00;;
2039;SDS011;1025;42.686;23.350;2022-11-24T14:03:46;2.50;;;2.37;;
2039;SDS011;1025;42.686;23.350;2022-11-24T14:06:25;2.23;;;2.13;;
2039;SDS011;1025;42.686;23.350;2022-11-24T14:08:53;2.83;;;2.53;;
2039;SDS011;1025;42.686;23.350;2022-11-24T14:11:20;2.83;;;2.73;;
2039;SDS011;1025;42.686;23.350;2022-11-24T14:13:46;4.60;;;2.70;;
2039;SDS011;1025;42.686;23.350;2022-11-24T14:16:14;3.03;;;2.80;;
2039;SDS011;1025;42.686;23.350;2022-11-24T14:18:41;2.70;;;2.60;;
2039;SDS011;1025;42.686;23.350;2022-11-24T14:21:19;3.37;;;3.17;;
2039;SDS011;1025;42.686;23.350;2022-11-24T14:23:48;2.73;;;2.63;;
2039;SDS011;1025;42.686;23.350;2022-11-24T14:26:16;2.83;;;2.63;;
2039;SDS011;1025;42.686;23.350;2022-11-24T14:28:44;2.23;;;2.13;;
2039;SDS011;1025;42.686;23.350;2022-11-24T14:31:17;2.83;;;2.73;;
2039;SDS011;1025;42.686;23.350;2022-11-24T14:33:44;3.93;;;3.50;;
2039;SDS011;1025;42.686;23.350;2022-11-24T14:36:12;3.17;;;2.90;;
2039;SDS011;1025;42.686;23.350;2022-11-24T14:38:39;3.20;;;2.90;;
2039;SDS011;1025;42.686;23.350;2022-11-24T14:41:14;2.20;;;2.03;;
2039;SDS011;1025;42.686;23.350;2022-11-24T14:43:41;2.00;;;1.90;;
2039;SDS011;1025;42.686;23.350;2022-11-24T14:46:08;1.70;;;1.70;;
2039;SDS011;1025;42.686;23.350;2022-11-24T14:48:37;2.20;;;2.10;;
2039;SDS011;1025;42.686;23.350;2022-11-24T14:51:05;5.33;;;4.50;;
2039;SDS011;1025;42.686;23.350;2022-11-24T14:53:33;4.10;;;3.37;;
2039;SDS011;1025;42.686;23.350;2022-11-24T14:56:06;3.87;;;3.50;;
2039;SDS011;1025;42.686;23.350;2022-11-24T14:58:35;3.50;;;3.20;;
2039;SDS011;1025;42.686;23.350;2022-11-24T15:01:09;2.43;;;2.33;;
2039;SDS011;1025;42.686;23.350;2022-11-24T15:03:36;3.00;;;2.80;;
2039;SDS011;1025;42.686;23.350;2022-11-24T15:06:02;2.03;;;1.93;;
2039;SDS011;1025;42.686;23.350;2022-11-24T15:08:30;2.30;;;2.20;;
2039;SDS011;1025;42.686;23.350;2022-11-24T15:11:01;2.70;;;2.50;;
2039;SDS011;1025;42.686;23.350;2022-11-24T15:13:28;3.47;;;3.27;;
2039;SDS011;1025;42.686;23.350;2022-11-24T15:15:59;2.10;;;2.00;;
2039;SDS011;1025;42.686;23.350;2022-11-24T15:18:27;2.83;;;2.73;;
2039;SDS011;1025;42.686;23.350;2022-11-24T15:20:56;1.90;;;1.80;;